createdAt,value
2023-01-10T00:04:48.588Z,99592.63
2023-01-10T00:09:51.385Z,99601.13
2023-01-10T00:14:55.557Z,99599.28
2023-01-10T00:19:58.335Z,99601.25
2023-01-10T00:25:01.203Z,99610.06
2023-01-10T00:30:13.794Z,99620.81
2023-01-10T00:35:16.677Z,99628.47
2023-01-10T00:40:19.682Z,99643.72
2023-01-10T00:45:25.043Z,99650.25
2023-01-10T00:50:27.891Z,99659.88
2023-01-10T00:55:30.794Z,99664.66
2023-01-10T01:00:35.043Z,99690.31
2023-01-10T01:05:41.610Z,99700.78
2023-01-10T01:10:44.663Z,99713.38
2023-01-10T01:15:48.972Z,99719.75
2023-01-10T01:20:53.892Z,99734.22
2023-01-10T01:25:57.163Z,99733.47
2023-01-10T01:31:01.641Z,99732.63
2023-01-10T01:36:05.944Z,99731.22
2023-01-10T01:41:29.323Z,99734.34
2023-01-10T01:46:33.908Z,99743.13
2023-01-10T01:51:36.985Z,99754.56
2023-01-10T01:56:42.853Z,99774.78
2023-01-10T02:01:50.300Z,99777.06
2023-01-10T02:06:53.506Z,99784.81
2023-01-10T02:11:56.528Z,99787.22
2023-01-10T02:17:00.819Z,99797.09
2023-01-10T02:22:51.125Z,99804.00
2023-01-10T02:28:07.341Z,99814.84
2023-01-10T02:33:15.361Z,99816.50
2023-01-10T02:38:34.730Z,99823.44
2023-01-10T02:43:40.309Z,99832.28
2023-01-10T02:48:44.659Z,99841.00
2023-01-10T02:53:48.691Z,99856.78
2023-01-10T02:59:11.740Z,99855.59
2023-01-10T03:04:20.465Z,99864.19
2023-01-10T03:09:25.593Z,99869.94
2023-01-10T03:14:42.206Z,99871.19
2023-01-10T03:19:55.704Z,99875.97
2023-01-10T03:24:59.823Z,99890.63
2023-01-10T03:30:05.123Z,99906.03
2023-01-10T03:35:10.766Z,99925.03
2023-01-10T03:40:16.862Z,99932.50
2023-01-10T03:45:19.884Z,99948.88
2023-01-10T03:50:24.900Z,99962.44
2023-01-10T03:55:29.058Z,99981.44
2023-01-10T04:00:31.950Z,99976.47
2023-01-10T04:05:36.274Z,99986.72
2023-01-10T04:10:39.459Z,100001.38
2023-01-10T04:15:42.391Z,100006.00
2023-01-10T04:20:46.726Z,100014.41
2023-01-10T04:25:49.484Z,100028.19
2023-01-10T04:30:52.260Z,100034.75
2023-01-10T04:35:56.726Z,100046.72
2023-01-10T04:40:59.573Z,100054.13
2023-01-10T04:46:02.394Z,100072.19
2023-01-10T04:51:07.028Z,100077.06
2023-01-10T04:56:10.660Z,100086.44
2023-01-10T05:01:14.557Z,100101.81
2023-01-10T05:06:18.808Z,100102.91
2023-01-10T05:11:21.555Z,100104.09
2023-01-10T05:16:25.423Z,100111.53
2023-01-10T05:21:29.563Z,100122.63
2023-01-10T05:26:32.403Z,100137.00
2023-01-10T05:31:35.249Z,100143.44
2023-01-10T05:36:39.419Z,100162.34
2023-01-10T05:41:42.284Z,100174.16
2023-01-10T05:46:45.101Z,100185.09
2023-01-10T05:51:49.293Z,100189.72
2023-01-10T05:56:52.037Z,100202.38
2023-01-10T06:01:54.831Z,100205.19
2023-01-10T06:06:59.011Z,100215.16
2023-01-10T06:12:01.821Z,100219.88
2023-01-10T06:17:08.509Z,100229.03
2023-01-10T06:22:12.652Z,100235.44
2023-01-10T06:27:15.405Z,100254.31
2023-01-10T06:32:18.185Z,100256.25
2023-01-10T06:37:22.444Z,100278.66
2023-01-10T06:42:25.383Z,100277.06
2023-01-10T06:47:28.153Z,100297.66
2023-01-10T06:52:32.381Z,100312.13
2023-01-10T06:57:35.454Z,100329.16
2023-01-10T07:02:38.411Z,100343.53
2023-01-10T07:07:42.545Z,100347.16
2023-01-10T07:12:45.324Z,100350.06
2023-01-10T07:17:48.081Z,100367.94
2023-01-10T07:22:55.984Z,100369.84
2023-01-10T07:27:58.850Z,100383.47
2023-01-10T07:33:03.835Z,100394.31
2023-01-10T07:38:09.097Z,100405.25
2023-01-10T07:43:11.876Z,100401.41
2023-01-10T07:48:14.659Z,100426.97
2023-01-10T07:53:18.862Z,100441.34
2023-01-10T07:58:21.629Z,100454.84
2023-01-10T08:03:24.984Z,100464.72
2023-01-10T08:08:29.275Z,100472.00
2023-01-10T08:13:32.380Z,100488.19
2023-01-10T08:18:35.206Z,100498.19
2023-01-10T08:23:39.351Z,100517.56
2023-01-10T08:28:42.134Z,100528.28
2023-01-10T08:33:44.974Z,100509.25
2023-01-10T08:38:50.949Z,100516.19
2023-01-10T08:43:53.788Z,100524.72
2023-01-10T08:48:56.549Z,100534.34
2023-01-10T08:54:00.734Z,100548.94
2023-01-10T08:59:03.526Z,100561.41
2023-01-10T09:04:06.550Z,100546.72
2023-01-10T09:09:10.758Z,100558.25
2023-01-10T09:14:13.598Z,100563.13
2023-01-10T09:19:16.567Z,100567.00
2023-01-10T09:24:20.974Z,100577.38
2023-01-10T09:29:23.675Z,100571.94
2023-01-10T09:34:26.520Z,100585.22
2023-01-10T09:39:32.268Z,100584.16
2023-01-10T09:44:41.984Z,100588.53
2023-01-10T09:49:48.080Z,100591.97
2023-01-10T09:54:52.653Z,100586.09
2023-01-10T09:59:55.513Z,100594.00
2023-01-10T10:05:11.081Z,100595.72
2023-01-10T10:10:17.620Z,100608.78
2023-01-10T10:15:24.635Z,100613.22
2023-01-10T10:20:32.703Z,100626.03
2023-01-10T10:25:45.387Z,100618.75
2023-01-10T10:30:51.494Z,100624.00
2023-01-10T10:35:56.207Z,100621.41
2023-01-10T10:41:01.014Z,100612.44
2023-01-10T10:46:05.371Z,100620.47
2023-01-10T10:51:09.864Z,100620.38
2023-01-10T10:56:15.104Z,100604.97
2023-01-10T11:01:18.134Z,100601.53
2023-01-10T11:06:21.135Z,100598.28
2023-01-10T11:11:26.845Z,100606.44
2023-01-10T11:16:31.037Z,100601.81
2023-01-10T11:21:33.922Z,100625.72
2023-01-10T11:26:40.227Z,100628.41
2023-01-10T11:31:43.017Z,100630.13
2023-01-10T11:36:56.950Z,100621.03
2023-01-10T11:42:07.893Z,100642.22
2023-01-10T11:47:14.727Z,100638.59
2023-01-10T11:52:22.135Z,100642.97
2023-01-10T11:57:27.050Z,100645.59
2023-01-10T12:02:31.478Z,100646.44
2023-01-10T12:07:54.804Z,100643.75
2023-01-10T12:12:59.993Z,100656.19
2023-01-10T12:18:04.262Z,100651.78
2023-01-10T12:23:09.154Z,100662.50
2023-01-10T12:28:14.884Z,100668.91
2023-01-10T12:33:18.781Z,100661.19
2023-01-10T12:38:39.259Z,100671.13
2023-01-10T12:44:06.339Z,100677.44
2023-01-10T12:49:10.590Z,100676.50
2023-01-10T12:54:15.591Z,100686.03
2023-01-10T12:59:36.128Z,100684.41
2023-01-10T13:04:39.696Z,100681.53
2023-01-10T13:09:42.707Z,100686.78
2023-01-10T13:14:47.791Z,100688.50
2023-01-10T13:20:23.581Z,100693.19
2023-01-10T13:25:27.231Z,100692.91
2023-01-10T13:30:33.342Z,100684.56
2023-01-10T13:35:40.693Z,100676.31
2023-01-10T13:40:43.513Z,100686.53
2023-01-10T13:45:47.691Z,100688.81
2023-01-10T13:51:08.712Z,100692.81
2023-01-10T13:56:36.170Z,100713.81
2023-01-10T14:01:58.061Z,100714.28
2023-01-10T14:07:02.056Z,100718.94
2023-01-10T14:12:06.228Z,100712.31
2023-01-10T14:17:15.439Z,100711.88
2023-01-10T14:22:27.472Z,100738.63
2023-01-10T14:27:35.682Z,100731.06
2023-01-10T14:32:41.270Z,100719.63
2023-01-10T14:37:45.214Z,100722.13
2023-01-10T14:42:48.952Z,100708.00
2023-01-10T14:47:53.973Z,100709.38
2023-01-10T14:52:57.126Z,100706.53
2023-01-10T14:58:00.784Z,100706.91
2023-01-10T15:03:09.121Z,100714.44
2023-01-10T15:08:16.881Z,100703.31
2023-01-10T15:13:20.819Z,100707.94
2023-01-10T15:18:30.816Z,100704.06
2023-01-10T15:23:36.996Z,100697.44
2023-01-10T15:28:39.861Z,100702.06
2023-01-10T15:33:45.017Z,100701.66
2023-01-10T15:38:48.017Z,100704.84
2023-01-10T15:43:52.051Z,100701.63
2023-01-10T15:48:57.653Z,100697.56
2023-01-10T15:54:04.736Z,100700.66
2023-01-10T15:59:21.424Z,100706.69
2023-01-10T16:04:25.606Z,100698.97
2023-01-10T16:09:28.385Z,100712.06
2023-01-10T16:14:31.254Z,100696.38
2023-01-10T16:19:35.522Z,100670.63
2023-01-10T16:24:38.251Z,100691.22
2023-01-10T16:29:41.002Z,100685.41
2023-01-10T16:34:45.189Z,100679.38
2023-01-10T16:39:48.009Z,100684.63
2023-01-10T16:44:50.818Z,100681.72
2023-01-10T16:49:54.946Z,100687.63
2023-01-10T16:54:57.827Z,100693.50
2023-01-10T17:00:00.629Z,100691.44
2023-01-10T17:05:05.058Z,100695.50
2023-01-10T17:10:08.387Z,100701.41
2023-01-10T17:15:12.397Z,100698.59
2023-01-10T17:20:16.686Z,100702.03
2023-01-10T17:25:19.539Z,100695.34
2023-01-10T17:30:22.470Z,100691.47
2023-01-10T17:35:28.152Z,100682.66
2023-01-10T17:40:31.044Z,100687.19
2023-01-10T17:45:33.876Z,100695.56
2023-01-10T17:50:38.106Z,100693.94
2023-01-10T17:55:45.111Z,100691.91
2023-01-10T18:00:48.687Z,100691.78
2023-01-10T18:05:53.540Z,100664.53
2023-01-10T18:10:59.748Z,100668.94
2023-01-10T18:16:02.587Z,100668.09
2023-01-10T18:21:13.218Z,100657.59
2023-01-10T18:26:16.019Z,100657.47
2023-01-10T18:31:19.636Z,100656.50
2023-01-10T18:36:24.207Z,100663.81
2023-01-10T18:41:27.099Z,100660.03
2023-01-10T18:46:30.042Z,100651.97
2023-01-10T18:51:34.285Z,100645.97
2023-01-10T18:56:37.042Z,100640.25
2023-01-10T19:01:39.847Z,100625.97
2023-01-10T19:06:44.333Z,100627.47
2023-01-10T19:11:47.148Z,100628.19
2023-01-10T19:16:49.918Z,100625.25
2023-01-10T19:21:54.065Z,100625.38
2023-01-10T19:26:56.979Z,100622.81
2023-01-10T19:32:00.536Z,100608.53
2023-01-10T19:37:04.678Z,100606.56
2023-01-10T19:42:07.444Z,100606.78
2023-01-10T19:47:11.502Z,100606.66
2023-01-10T19:52:15.599Z,100602.53
2023-01-10T19:57:18.680Z,100601.31
2023-01-10T20:02:21.762Z,100596.69
2023-01-10T20:07:26.071Z,100590.13
2023-01-10T20:12:28.988Z,100583.13
2023-01-10T20:17:33.206Z,100592.03
2023-01-10T20:22:37.351Z,100584.09
2023-01-10T20:27:40.158Z,100572.38
2023-01-10T20:32:42.933Z,100570.53
2023-01-10T20:37:47.080Z,100569.47
2023-01-10T20:42:50.870Z,100556.88
2023-01-10T20:47:53.953Z,100552.63
2023-01-10T20:52:58.098Z,100547.13
2023-01-10T20:58:00.892Z,100542.72
2023-01-10T21:03:03.852Z,100547.00
2023-01-10T21:08:08.001Z,100542.59
2023-01-10T21:13:10.842Z,100540.03
2023-01-10T21:18:14.196Z,100542.09
2023-01-10T21:23:20.336Z,100535.72
2023-01-10T21:28:23.386Z,100532.06
2023-01-10T21:33:26.334Z,100524.84
2023-01-10T21:38:30.796Z,100533.81
2023-01-10T21:43:33.625Z,100519.47
2023-01-10T21:48:36.581Z,100512.31
2023-01-10T21:53:42.997Z,100507.03
2023-01-10T21:58:46.841Z,100504.72
2023-01-10T22:03:50.206Z,100496.41
2023-01-10T22:08:54.436Z,100486.16
2023-01-10T22:13:57.944Z,100479.19
2023-01-10T22:19:00.738Z,100477.47
2023-01-10T22:24:05.514Z,100480.53
2023-01-10T22:29:08.288Z,100467.34
2023-01-10T22:34:11.133Z,100447.69
2023-01-10T22:39:15.461Z,100438.53
2023-01-10T22:44:19.246Z,100429.88
2023-01-10T22:49:22.229Z,100423.25
2023-01-10T22:54:26.357Z,100416.03
2023-01-10T22:59:29.169Z,100405.31
2023-01-10T23:04:31.941Z,100394.81
2023-01-10T23:09:36.169Z,100399.78
2023-01-10T23:14:38.990Z,100383.53
2023-01-10T23:19:41.771Z,100382.09
2023-01-10T23:24:45.888Z,100378.69
2023-01-10T23:29:48.891Z,100369.38
2023-01-10T23:34:51.727Z,100356.94
2023-01-10T23:39:56.484Z,100348.59
2023-01-10T23:44:59.344Z,100341.78
2023-01-10T23:50:02.110Z,100336.28
2023-01-10T23:55:07.377Z,100336.03
